Time;durP1;ratioP1;P1;durP2;ratioP2;P2;SDS_P1;SDS_P2;PMS_P1;PMS_P2;Temp;Humidity;BMP_temperature;BMP_pressure;BME280_temperature;BME280_humidity;BME280_pressure;Samples;Min_cycle;Max_cycle;Signal;HPM_P1;HPM_P2
2021/10/14 00:00:41;;;;;;;18.43;14.10;;;;;;;6.48;67.81;100939.28;4882231;28;96989;-85
2021/10/14 00:03:08;;;;;;;17.57;13.93;;;;;;;6.49;67.89;100933.19;4894382;28;97350;-84
2021/10/14 00:05:34;;;;;;;17.00;14.37;;;;;;;6.39;67.97;100936.75;4894296;28;101383;-84
2021/10/14 00:08:00;;;;;;;17.10;13.60;;;;;;;6.43;68.32;100930.66;4879935;28;101053;-85
2021/10/14 00:10:26;;;;;;;17.87;14.40;;;;;;;6.45;67.86;100926.25;4888853;28;96662;-83
2021/10/14 00:12:52;;;;;;;23.00;13.77;;;;;;;6.49;67.87;100927.97;4889074;28;97066;-85
2021/10/14 00:15:18;;;;;;;18.07;14.07;;;;;;;6.41;68.06;100935.00;4908680;28;101262;-85
2021/10/14 00:17:44;;;;;;;18.50;14.20;;;;;;;6.38;68.15;100931.56;4884526;28;100049;-85
2021/10/14 00:20:10;;;;;;;17.47;14.60;;;;;;;6.38;68.33;100937.63;4878590;28;97056;-85
2021/10/14 00:22:36;;;;;;;17.40;14.80;;;;;;;6.48;68.01;100926.22;4864070;28;96818;-85
2021/10/14 00:25:02;;;;;;;17.30;13.97;;;;;;;6.31;68.32;100926.38;4892544;28;97444;-85
2021/10/14 00:27:28;;;;;;;17.15;15.00;;;;;;;6.35;68.09;100929.81;4882024;28;100105;-84
2021/10/14 00:29:53;;;;;;;16.77;14.20;;;;;;;6.33;67.73;100932.44;4881775;28;97113;-84
2021/10/14 00:32:22;;;;;;;18.27;15.60;;;;;;;6.31;68.06;100928.09;4881555;28;98691;-84
2021/10/14 00:34:48;;;;;;;19.53;15.70;;;;;;;6.26;68.34;100924.69;4893653;28;100278;-84
2021/10/14 00:37:14;;;;;;;16.50;13.02;;;;;;;6.28;68.34;100922.91;4875360;28;100040;-84
2021/10/14 00:39:39;;;;;;;15.80;13.70;;;;;;;6.27;68.54;100927.25;4868881;28;97915;-84
2021/10/14 00:42:06;;;;;;;15.53;13.87;;;;;;;6.33;68.61;100929.81;4875529;28;97429;-85
2021/10/14 00:44:48;;;;;;;17.23;15.03;;;;;;;6.34;68.33;100930.69;4885979;28;101422;-84
2021/10/14 00:47:22;;;;;;;17.70;14.93;;;;;;;6.30;68.44;100932.44;4897320;28;100254;-84
2021/10/14 00:49:48;;;;;;;16.10;14.20;;;;;;;6.26;68.23;100933.34;4880844;28;96901;-84
2021/10/14 00:52:14;;;;;;;20.17;14.83;;;;;;;6.23;68.78;100935.13;4875063;28;97265;-84
2021/10/14 00:54:40;;;;;;;18.37;15.27;;;;;;;6.20;68.72;100932.53;4899669;28;98392;-84
2021/10/14 00:57:06;;;;;;;18.33;14.27;;;;;;;6.29;68.73;100932.47;4881657;28;101407;-85
2021/10/14 00:59:32;;;;;;;17.43;14.43;;;;;;;6.30;69.02;100939.41;4893693;28;96580;-83
2021/10/14 01:01:57;;;;;;;18.20;14.50;;;;;;;6.15;69.08;100919.53;4891168;28;96966;-83
2021/10/14 01:04:23;;;;;;;17.00;13.43;;;;;;;6.27;69.10;100940.28;4892730;28;98127;-84
2021/10/14 01:06:48;;;;;;;18.67;13.67;;;;;;;6.21;68.97;100918.63;4896887;28;98360;-84
2021/10/14 01:09:15;;;;;;;17.90;13.17;;;;;;;6.31;68.85;100933.31;4881458;28;96905;-84
2021/10/14 01:11:40;;;;;;;17.25;14.50;;;;;;;6.31;68.95;100941.13;4893127;28;97114;-84
2021/10/14 01:14:06;;;;;;;17.02;13.98;;;;;;;6.27;69.02;100932.47;4895195;28;100551;-83
2021/10/14 01:16:42;;;;;;;16.40;13.40;;;;;;;6.32;68.84;100928.09;4893439;28;101448;-83
2021/10/14 01:19:09;;;;;;;16.37;13.20;;;;;;;6.33;69.21;100927.22;4884612;28;96951;-83
2021/10/14 01:21:35;;;;;;;16.98;14.00;;;;;;;6.50;68.59;100921.88;4886733;28;97348;-83
2021/10/14 01:24:01;;;;;;;18.50;13.48;;;;;;;6.50;68.57;100929.69;4900532;28;100051;-84
2021/10/14 01:26:27;;;;;;;17.45;13.10;;;;;;;6.50;68.63;100907.97;4873882;28;100071;-85
2021/10/14 01:28:54;;;;;;;15.65;12.10;;;;;;;6.52;69.11;100917.53;4907878;28;96756;-84
2021/10/14 01:31:24;;;;;;;18.80;12.83;;;;;;;6.45;69.01;100917.56;4871870;28;96954;-84
2021/10/14 01:33:50;;;;;;;15.93;13.80;;;;;;;6.43;69.15;100917.59;4858406;28;100176;-84
2021/10/14 01:36:15;;;;;;;17.00;13.23;;;;;;;6.37;69.40;100908.94;4870467;28;101442;-85
2021/10/14 01:38:41;;;;;;;16.40;13.93;;;;;;;6.50;69.38;100905.38;4880211;28;96919;-84
2021/10/14 01:41:07;;;;;;;25.35;13.77;;;;;;;6.49;69.20;100912.34;4875152;28;96950;-84
2021/10/14 01:43:35;;;;;;;18.08;14.35;;;;;;;6.48;69.12;100904.50;4888413;28;98069;-84
2021/10/14 01:46:02;;;;;;;17.85;14.15;;;;;;;6.55;69.38;100920.09;4878251;28;101359;-85
2021/10/14 01:48:28;;;;;;;18.47;14.73;;;;;;;6.51;69.10;100915.78;4866091;28;96727;-84
2021/10/14 01:50:54;;;;;;;19.95;14.23;;;;;;;6.44;69.38;100913.25;4862704;28;96751;-84
2021/10/14 01:53:20;;;;;;;16.35;13.45;;;;;;;6.45;69.71;100918.44;4877135;28;100679;-84
2021/10/14 01:55:45;;;;;;;15.85;14.15;;;;;;;6.53;69.54;100915.78;4861831;28;100319;-84
2021/10/14 01:58:11;;;;;;;15.07;13.47;;;;;;;6.47;69.75;100903.66;4876963;28;96904;-84
2021/10/14 02:00:37;;;;;;;16.47;12.40;;;;;;;6.49;70.06;100895.81;4874325;28;96871;-84
2021/10/14 02:03:03;;;;;;;19.38;12.80;;;;;;;6.46;69.83;100888.88;4861067;28;101065;-84
2021/10/14 02:05:28;;;;;;;15.85;12.25;;;;;;;6.51;69.59;100892.31;4876561;28;100778;-85
2021/10/14 02:07:54;;;;;;;16.95;13.13;;;;;;;6.46;69.82;100882.81;4862783;28;96864;-84
2021/10/14 02:10:19;;;;;;;15.70;13.23;;;;;;;6.45;70.30;100887.13;4863726;28;96641;-84
2021/10/14 02:12:47;;;;;;;18.00;13.23;;;;;;;6.50;70.13;100877.53;4879608;28;101097;-84
2021/10/14 02:15:13;;;;;;;16.03;13.27;;;;;;;6.50;69.95;100881.91;4862734;28;100046;-83
2021/10/14 02:17:38;;;;;;;15.20;13.35;;;;;;;6.42;69.96;100873.25;4866310;28;97197;-84
2021/10/14 02:20:05;;;;;;;18.33;13.68;;;;;;;6.50;69.38;100882.75;4871219;28;97568;-84
2021/10/14 02:22:31;;;;;;;15.75;14.10;;;;;;;6.54;69.21;100886.19;4854099;28;101502;-84
2021/10/14 02:24:56;;;;;;;19.50;13.38;;;;;;;6.42;69.48;100870.66;4863788;28;100198;-84
2021/10/14 02:27:22;;;;;;;18.48;13.10;;;;;;;6.57;69.12;100880.94;4880399;28;96844;-84
2021/10/14 02:29:48;;;;;;;15.20;12.85;;;;;;;6.54;69.23;100875.75;4862096;28;97321;-84
2021/10/14 02:32:13;;;;;;;18.93;12.87;;;;;;;6.53;69.23;100869.69;4863223;28;101764;-84
2021/10/14 02:34:39;;;;;;;16.17;13.70;;;;;;;6.53;69.05;100879.25;4866329;28;101092;-84
2021/10/14 02:37:04;;;;;;;15.30;13.68;;;;;;;6.51;69.83;100873.19;4864258;28;96813;-84
2021/10/14 02:39:30;;;;;;;14.20;12.60;;;;;;;6.50;69.44;100885.38;4870800;28;97172;-84
2021/10/14 02:41:55;;;;;;;14.65;13.13;;;;;;;6.48;69.15;100876.69;4895071;28;98038;-84
2021/10/14 02:44:21;;;;;;;17.07;13.23;;;;;;;6.48;69.58;100875.81;4862522;28;99786;-84
2021/10/14 02:46:46;;;;;;;17.83;13.52;;;;;;;6.49;69.58;100878.44;4870300;28;97006;-84
2021/10/14 02:49:12;;;;;;;18.65;13.02;;;;;;;6.46;69.11;100878.47;4864407;28;96916;-84
2021/10/14 02:51:38;;;;;;;15.13;12.20;;;;;;;6.52;69.66;100880.16;4863243;28;100365;-83
2021/10/14 02:54:03;;;;;;;15.07;13.57;;;;;;;6.50;69.43;100876.69;4879552;28;101775;-83
2021/10/14 02:56:29;;;;;;;14.87;12.27;;;;;;;6.51;69.37;100881.00;4895960;28;97425;-84
2021/10/14 02:58:54;;;;;;;13.68;12.38;;;;;;;6.49;69.44;100886.25;4880062;28;98068;-84
2021/10/14 03:01:20;;;;;;;15.23;13.63;;;;;;;6.39;69.54;100874.16;4880318;28;101851;-82
2021/10/14 03:03:45;;;;;;;17.90;13.70;;;;;;;6.44;68.89;100888.03;4877289;28;101933;-84
2021/10/14 03:06:11;;;;;;;17.50;13.60;;;;;;;6.46;68.88;100881.06;4863518;28;97426;-84
2021/10/14 03:08:37;;;;;;;17.00;13.60;;;;;;;6.47;69.11;100892.34;4875673;28;98222;-83
2021/10/14 03:11:02;;;;;;;16.25;13.40;;;;;;;6.45;69.20;100892.34;4864071;28;101852;-84
2021/10/14 03:13:28;;;;;;;18.02;13.43;;;;;;;6.46;69.51;100898.47;4863889;28;100219;-84
2021/10/14 03:15:54;;;;;;;15.53;13.30;;;;;;;6.50;69.45;100901.00;4879070;28;96738;-84
2021/10/14 03:18:19;;;;;;;17.90;13.20;;;;;;;6.40;69.59;100907.19;4889506;28;96857;-84
2021/10/14 03:20:45;;;;;;;19.27;14.17;;;;;;;6.45;69.74;100902.78;4871967;28;98273;-84
2021/10/14 03:23:11;;;;;;;18.37;13.93;;;;;;;6.36;69.62;100892.44;4856708;28;101013;-83
2021/10/14 03:25:36;;;;;;;18.20;13.73;;;;;;;6.43;69.91;100907.16;4875784;28;96676;-83
2021/10/14 03:28:02;;;;;;;20.30;13.93;;;;;;;6.39;69.80;100902.84;4877958;28;96847;-84
2021/10/14 03:30:28;;;;;;;16.07;13.77;;;;;;;6.30;69.68;100892.47;4844759;28;101451;-85
2021/10/14 03:32:53;;;;;;;16.90;13.50;;;;;;;6.47;69.09;100911.47;4879706;28;99734;-84
2021/10/14 03:35:19;;;;;;;24.38;14.63;;;;;;;6.45;69.21;100909.75;4881285;28;96767;-84
2021/10/14 03:37:46;;;;;;;17.20;14.00;;;;;;;6.41;69.40;100903.69;4889819;28;96905;-84
2021/10/14 03:40:13;;;;;;;16.27;14.23;;;;;;;6.44;69.31;100905.41;4886653;28;100759;-83
2021/10/14 03:42:38;;;;;;;21.83;15.03;;;;;;;6.34;69.43;100897.69;4897148;28;101334;-84
2021/10/14 03:45:04;;;;;;;19.77;15.20;;;;;;;6.31;69.23;100895.09;4892483;28;96888;-84
2021/10/14 03:47:30;;;;;;;16.17;14.33;;;;;;;6.30;69.75;100892.47;4896590;28;97124;-83
2021/10/14 03:49:55;;;;;;;18.17;15.37;;;;;;;6.30;69.69;100895.94;4897042;28;98602;-83
2021/10/14 03:52:21;;;;;;;20.63;15.80;;;;;;;6.37;69.37;100891.56;4893412;28;101188;-84
2021/10/14 03:54:46;;;;;;;19.93;15.27;;;;;;;6.41;69.15;100892.41;4877536;28;97501;-84
2021/10/14 03:57:12;;;;;;;17.47;14.63;;;;;;;6.40;69.46;100901.97;4895250;28;97231;-84
2021/10/14 03:59:38;;;;;;;23.47;16.90;;;;;;;6.45;69.17;100899.31;4879681;28;99861;-83
2021/10/14 04:02:04;;;;;;;18.47;16.07;;;;;;;6.54;68.78;100896.63;4897203;28;101423;-84
2021/10/14 04:04:30;;;;;;;19.03;15.53;;;;;;;6.45;68.54;100894.97;4895549;28;97033;-84
2021/10/14 04:06:55;;;;;;;18.13;15.37;;;;;;;6.47;69.13;100897.56;4891886;28;97458;-84
2021/10/14 04:09:21;;;;;;;18.98;14.30;;;;;;;6.37;68.97;100904.63;4881594;28;101578;-85
2021/10/14 04:11:46;;;;;;;17.90;14.50;;;;;;;6.38;68.81;100906.34;4897299;28;100089;-84
2021/10/14 04:14:12;;;;;;;19.37;14.10;;;;;;;6.34;68.89;100897.69;4881319;28;96939;-84
2021/10/14 04:16:37;;;;;;;19.52;15.18;;;;;;;6.49;68.97;100907.13;4881734;28;97459;-84
2021/10/14 04:19:03;;;;;;;20.10;14.77;;;;;;;6.52;68.02;100883.63;4901026;28;99450;-84
2021/10/14 04:21:28;;;;;;;23.80;14.70;;;;;;;6.50;68.23;100897.53;4913677;28;99548;-84
2021/10/14 04:23:56;;;;;;;18.97;14.50;;;;;;;6.41;68.14;100897.63;4896694;28;96773;-84
2021/10/14 04:26:21;;;;;;;20.47;14.80;;;;;;;6.39;68.78;100896.75;4873873;28;96852;-84
2021/10/14 04:28:47;;;;;;;18.60;14.13;;;;;;;6.54;67.87;100892.31;4881371;28;100056;-84
2021/10/14 04:31:14;;;;;;;19.20;14.40;;;;;;;6.57;67.98;100905.31;4887853;28;101120;-84
2021/10/14 04:33:39;;;;;;;15.93;13.63;;;;;;;6.52;67.65;100895.81;4897200;28;97161;-84
2021/10/14 04:36:05;;;;;;;16.67;13.73;;;;;;;6.44;68.11;100897.59;4898453;28;97220;-83
2021/10/14 04:38:31;;;;;;;17.07;13.43;;;;;;;6.48;68.15;100902.75;4898159;28;102130;-84
2021/10/14 04:40:57;;;;;;;15.87;14.03;;;;;;;6.44;68.00;100893.25;4876588;28;101090;-84
2021/10/14 04:43:23;;;;;;;17.57;14.40;;;;;;;6.52;67.98;100899.25;4883816;28;97547;-84
2021/10/14 04:45:50;;;;;;;16.17;13.07;;;;;;;6.46;67.95;100895.84;4881099;28;97173;-83
2021/10/14 04:48:16;;;;;;;15.17;12.33;;;;;;;6.36;68.15;100897.66;4872818;28;100241;-85
2021/10/14 04:50:41;;;;;;;16.37;13.77;;;;;;;6.36;68.06;100887.22;4899411;28;101377;-84
2021/10/14 04:53:07;;;;;;;20.93;13.10;;;;;;;6.36;67.78;100897.66;4897794;28;97173;-84
2021/10/14 04:55:33;;;;;;;18.27;12.77;;;;;;;6.37;68.10;100898.50;4880189;28;96859;-84
2021/10/14 04:58:01;;;;;;;14.37;12.93;;;;;;;6.48;68.12;100887.09;4876307;28;101660;-84
2021/10/14 05:00:27;;;;;;;17.00;12.83;;;;;;;6.43;68.00;100888.03;4896988;28;100044;-84
2021/10/14 05:02:52;;;;;;;17.47;13.60;;;;;;;6.46;67.99;100901.06;4894874;28;97246;-84
2021/10/14 05:05:18;;;;;;;19.87;13.60;;;;;;;6.40;67.97;100894.16;4892333;28;97517;-83
2021/10/14 05:07:44;;;;;;;18.17;13.50;;;;;;;6.44;67.62;100895.84;4885235;28;101460;-84
2021/10/14 05:10:09;;;;;;;19.63;14.93;;;;;;;6.48;67.64;100894.94;4901790;28;101532;-85
2021/10/14 05:12:36;;;;;;;113.75;49.13;;;;;;;6.62;67.45;100907.88;4881147;28;99103;-85
2021/10/14 05:15:09;;;;;;;65.23;30.33;;;;;;;6.60;67.62;100907.00;4874213;28;96890;-84
2021/10/14 05:17:34;;;;;;;34.80;20.70;;;;;;;6.61;67.50;100902.69;4875760;28;101446;-82
2021/10/14 05:20:05;;;;;;;33.10;18.52;;;;;;;6.55;67.39;100914.03;4910175;28;98873;-85
2021/10/14 05:22:30;;;;;;;27.88;17.60;;;;;;;6.50;67.76;100908.84;4892898;28;98008;-83
2021/10/14 05:24:56;;;;;;;48.53;24.57;;;;;;;6.50;67.76;100898.41;4891731;28;97459;-84
2021/10/14 05:27:22;;;;;;;80.40;35.27;;;;;;;6.69;67.55;100906.06;4892310;28;98050;-82
2021/10/14 05:29:48;;;;;;;77.57;35.23;;;;;;;6.60;67.71;100907.00;4913020;28;97689;-85
2021/10/14 05:32:14;;;;;;;110.43;42.80;;;;;;;6.55;68.11;100904.47;4876778;28;97221;-85
2021/10/14 05:34:39;;;;;;;96.40;39.60;;;;;;;6.68;67.70;100902.59;4875072;28;97610;-83
2021/10/14 05:37:05;;;;;;;78.63;30.17;;;;;;;6.70;67.69;100908.69;4862294;28;101262;-82
2021/10/14 05:39:30;;;;;;;40.80;21.27;;;;;;;6.64;67.69;100892.22;4865073;28;101403;-85
2021/10/14 05:41:56;;;;;;;57.72;30.30;;;;;;;6.66;67.24;100900.88;4855308;28;96803;-85
2021/10/14 05:44:22;;;;;;;37.23;25.43;;;;;;;6.65;67.38;100894.81;4880173;28;96883;-86
2021/10/14 05:46:47;;;;;;;23.97;17.80;;;;;;;6.67;67.70;100898.25;4882581;28;97906;-85
2021/10/14 05:49:13;;;;;;;25.27;18.17;;;;;;;6.58;68.28;100887.91;4884419;28;97541;-85
2021/10/14 05:51:38;;;;;;;31.03;19.43;;;;;;;6.60;68.13;100895.72;4863496;28;96735;-84
2021/10/14 05:54:04;;;;;;;25.73;16.60;;;;;;;6.49;68.30;100895.81;4875195;28;97469;-85
2021/10/14 05:56:30;;;;;;;25.00;14.70;;;;;;;6.49;68.45;100891.47;4869146;28;101230;-85
2021/10/14 05:58:56;;;;;;;20.53;14.73;;;;;;;6.51;68.08;100892.31;4863052;28;101043;-84
2021/10/14 06:01:21;;;;;;;25.83;16.87;;;;;;;6.50;68.28;100893.19;4894243;28;97213;-84
2021/10/14 06:03:47;;;;;;;19.97;15.20;;;;;;;6.48;68.55;100897.53;4858990;28;96863;-85
2021/10/14 06:06:13;;;;;;;20.00;14.50;;;;;;;6.50;68.68;100906.22;4851440;28;100992;-85
2021/10/14 06:08:39;;;;;;;17.70;14.27;;;;;;;6.51;68.74;100905.34;4861410;28;100991;-85
2021/10/14 06:11:04;;;;;;;18.47;13.30;;;;;;;6.49;69.09;100899.28;4870233;28;96806;-85
2021/10/14 06:13:30;;;;;;;15.13;13.03;;;;;;;6.62;68.42;100901.78;4859487;28;97272;-85
2021/10/14 06:15:56;;;;;;;20.37;14.70;;;;;;;6.63;69.00;100901.75;4862274;28;101688;-85
2021/10/14 06:18:21;;;;;;;19.33;14.30;;;;;;;6.45;69.03;100900.19;4870025;28;101437;-85
2021/10/14 06:20:47;;;;;;;17.57;13.93;;;;;;;6.61;69.08;100910.50;4888657;28;97012;-84
2021/10/14 06:23:12;;;;;;;16.87;13.20;;;;;;;6.60;69.41;100911.38;4861352;28;97367;-83
2021/10/14 06:25:38;;;;;;;24.13;16.30;;;;;;;6.79;68.96;100910.34;4870041;28;98098;-83
2021/10/14 06:28:04;;;;;;;20.00;15.60;;;;;;;6.77;68.92;100912.09;4866024;28;98789;-83
2021/10/14 06:30:32;;;;;;;20.83;13.63;;;;;;;6.80;69.41;100902.47;4893974;28;96999;-83
2021/10/14 06:32:58;;;;;;;19.53;15.60;;;;;;;6.66;69.76;100904.38;4880394;28;96840;-83
2021/10/14 06:35:23;;;;;;;23.73;15.20;;;;;;;6.63;69.70;100914.81;4866840;28;102005;-83
2021/10/14 06:37:49;;;;;;;18.30;13.83;;;;;;;6.65;69.44;100904.38;4874222;28;100872;-83
2021/10/14 06:40:14;;;;;;;20.95;13.88;;;;;;;6.65;69.72;100904.38;4876556;28;96986;-84
2021/10/14 06:42:40;;;;;;;18.77;13.53;;;;;;;6.71;69.82;100914.75;4895419;28;97213;-83
2021/10/14 06:45:07;;;;;;;18.37;13.57;;;;;;;6.66;69.93;100908.69;4894278;28;101390;-82
2021/10/14 06:47:33;;;;;;;19.70;14.03;;;;;;;6.81;69.58;100908.59;4890934;28;98084;-85
2021/10/14 06:49:59;;;;;;;18.10;13.40;;;;;;;6.97;69.17;100906.69;4894594;28;97268;-86
2021/10/14 06:52:25;;;;;;;23.87;14.00;;;;;;;7.06;68.74;100905.72;4894415;28;97477;-83
2021/10/14 06:54:50;;;;;;;16.37;13.63;;;;;;;7.20;68.12;100906.44;4894413;28;97911;-83
2021/10/14 06:57:17;;;;;;;17.27;10.87;;;;;;;7.22;68.20;100892.50;4892391;28;101091;-85
2021/10/14 06:59:43;;;;;;;16.27;10.73;;;;;;;7.40;68.06;100898.38;4907725;28;96851;-85
2021/10/14 07:02:08;;;;;;;17.07;10.00;;;;;;;7.25;68.41;100895.06;4894097;28;96810;-85
2021/10/14 07:04:34;;;;;;;16.67;10.43;;;;;;;7.42;68.18;100910.56;4910719;28;97428;-87
2021/10/14 07:07:00;;;;;;;16.63;10.13;;;;;;;7.42;67.63;100891.41;4895614;28;101040;-85
2021/10/14 07:09:26;;;;;;;15.70;9.82;;;;;;;7.52;67.64;100906.06;4890652;28;97089;-86
2021/10/14 07:11:57;;;;;;;13.53;9.77;;;;;;;7.58;67.36;100889.47;4899182;28;97550;-87
2021/10/14 07:14:23;;;;;;;17.27;10.30;;;;;;;7.55;67.50;100895.59;4899199;28;98549;-87
2021/10/14 07:16:49;;;;;;;14.82;10.45;;;;;;;7.64;67.45;100898.06;4899634;28;98520;-79
2021/10/14 07:19:15;;;;;;;16.90;9.35;;;;;;;7.66;66.88;100892.84;4912625;28;97057;-78
2021/10/14 07:21:42;;;;;;;26.25;10.60;;;;;;;7.67;67.67;100912.84;4895781;28;96831;-82
2021/10/14 07:24:08;;;;;;;17.88;9.82;;;;;;;7.60;67.31;100909.47;4882265;28;101623;-79
2021/10/14 07:26:34;;;;;;;16.00;10.18;;;;;;;7.69;67.55;100911.97;4910356;28;97856;-80
2021/10/14 07:29:04;;;;;;;16.25;10.45;;;;;;;7.61;67.54;100903.34;4899928;28;96693;-90
2021/10/14 07:31:31;;;;;;;18.15;11.40;;;;;;;7.77;66.78;100896.19;4883991;28;96813;-91
2021/10/14 07:33:57;;;;;;;17.80;10.80;;;;;;;7.72;67.10;100895.38;4883803;28;100214;-91
2021/10/14 07:36:33;;;;;;;16.23;10.02;;;;;;;7.74;67.48;100892.72;4886975;28;99270;-91
2021/10/14 07:39:00;;;;;;;16.83;11.23;;;;;;;7.77;67.31;100893.56;4881466;28;97154;-88
2021/10/14 07:41:26;;;;;;;17.02;10.07;;;;;;;7.70;67.61;100882.31;4880430;28;96929;-90
2021/10/14 07:43:51;;;;;;;16.27;10.38;;;;;;;8.00;67.42;100908.94;4880103;28;101075;-91
2021/10/14 07:46:19;;;;;;;15.88;9.48;;;;;;;8.06;66.57;100892.31;4862986;28;100112;-90
2021/10/14 07:48:45;;;;;;;13.95;10.32;;;;;;;8.09;66.84;100900.97;4862790;28;97182;-90
2021/10/14 07:51:10;;;;;;;14.73;10.07;;;;;;;8.18;66.54;100904.34;4877813;28;97111;-90
2021/10/14 07:53:36;;;;;;;15.13;8.20;;;;;;;8.16;66.19;100907.81;4870660;28;98688;-89
2021/10/14 07:56:02;;;;;;;17.92;9.95;;;;;;;8.18;66.66;100902.59;4859681;28;100292;-91
2021/10/14 07:58:30;;;;;;;14.57;9.00;;;;;;;8.21;66.06;100878.13;4877858;28;97838;-89
2021/10/14 08:00:56;;;;;;;12.80;8.82;;;;;;;8.45;65.23;100897.84;4880319;28;97448;-90
2021/10/14 08:03:24;;;;;;;13.20;9.07;;;;;;;8.36;65.83;100889.22;4860309;28;100885;-89
2021/10/14 08:05:50;;;;;;;12.32;8.48;;;;;;;8.26;65.81;100874.56;4901953;28;98575;-96
2021/10/14 08:08:20;;;;;;;16.95;9.52;;;;;;;8.48;65.36;100897.78;4854540;28;98016;-96
2021/10/14 08:13:28;;;;;;;13.95;9.02;;;;;;;8.63;65.68;100886.19;4951495;23;99325;-95
2021/10/14 08:15:54;;;;;;;17.42;9.10;;;;;;;8.74;64.75;100879.03;4911463;28;97210;-95
2021/10/14 08:18:22;;;;;;;18.02;8.88;;;;;;;8.91;65.47;100892.69;4890937;28;96612;-96
2021/10/14 08:20:53;;;;;;;19.20;8.98;;;;;;;8.85;64.49;100884.94;4898259;28;96716;-93
2021/10/14 08:23:20;;;;;;;16.83;9.57;;;;;;;8.85;64.95;100879.72;4899582;28;100073;-95
2021/10/14 08:25:46;;;;;;;16.95;9.05;;;;;;;8.97;65.01;100891.72;4896505;28;100106;-96
2021/10/14 08:31:01;;;;;;;12.52;8.50;;;;;;;8.87;64.30;100879.66;4969378;23;98055;-96
2021/10/14 08:36:01;;;;;;;17.80;8.73;;;;;;;9.14;63.97;100879.16;5210195;23;100497;-93
2021/10/14 08:38:29;;;;;;;18.45;9.48;;;;;;;9.23;64.46;100875.50;4868502;28;96642;-94
2021/10/14 08:40:57;;;;;;;16.30;10.02;;;;;;;9.31;64.21;100868.34;4940711;23;96874;-91
2021/10/14 08:43:27;;;;;;;14.90;10.38;;;;;;;9.42;63.81;100870.75;4927873;28;97145;-94
2021/10/14 08:45:53;;;;;;;13.98;9.23;;;;;;;9.33;64.52;100866.53;4935668;28;97212;-94
2021/10/14 08:48:19;;;;;;;16.48;10.40;;;;;;;9.33;64.96;100878.78;4926298;28;96870;-94
2021/10/14 08:50:47;;;;;;;21.67;9.95;;;;;;;9.30;64.67;100875.31;4916438;28;96707;-93
2021/10/14 08:53:20;;;;;;;16.88;9.50;;;;;;;9.41;64.35;100871.66;4907518;28;98753;-95
2021/10/14 08:55:46;;;;;;;15.57;10.25;;;;;;;9.61;64.27;100879.09;4907133;28;101013;-94
2021/10/14 08:58:13;;;;;;;17.52;11.07;;;;;;;9.62;64.14;100863.31;4924220;28;96713;-94
2021/10/14 09:00:43;;;;;;;20.20;11.07;;;;;;;9.76;63.10;100884.00;4904120;28;96909;-96
2021/10/14 09:03:26;;;;;;;16.02;9.95;;;;;;;9.78;62.96;100879.59;4903187;28;100403;-96
2021/10/14 09:05:52;;;;;;;12.15;9.10;;;;;;;9.80;62.92;100866.44;4931260;28;96659;-92
2021/10/14 09:08:44;;;;;;;11.35;9.88;;;;;;;9.86;62.50;100872.44;4928060;28;96903;-92
2021/10/14 09:11:26;;;;;;;12.68;9.60;;;;;;;9.93;62.54;100879.25;4927548;28;96018;-96
2021/10/14 09:13:56;;;;;;;;;;;;;;;10.07;62.90;100878.09;4891927;28;100688;-89
2021/10/14 09:16:25;;;;;;;12.40;8.90;;;;;;;10.26;62.50;100881.97;4899372;28;101573;-90
2021/10/14 09:18:51;;;;;;;13.93;11.02;;;;;;;10.16;62.38;100870.84;4912373;28;96671;-88
2021/10/14 09:21:25;;;;;;;15.32;10.85;;;;;;;10.23;61.80;100875.94;4892150;28;97188;-89
2021/10/14 09:23:52;;;;;;;11.50;10.07;;;;;;;10.21;62.09;100868.13;4886506;28;102137;-83
2021/10/14 09:26:35;;;;;;;12.90;10.73;;;;;;;10.27;62.63;100873.25;4891745;28;101141;-82
2021/10/14 09:29:10;;;;;;;14.65;9.95;;;;;;;10.35;62.32;100867.81;4896811;28;97384;-79
2021/10/14 09:31:58;;;;;;;13.05;11.00;;;;;;;10.46;61.93;100870.19;4892644;28;96874;-86
2021/10/14 09:34:28;;;;;;;14.88;10.82;;;;;;;10.52;61.99;100852.50;4915279;28;98702;-86
2021/10/14 09:36:58;;;;;;;14.88;11.40;;;;;;;10.74;61.42;100863.34;4914479;28;101558;-84
2021/10/14 09:39:25;;;;;;;13.57;10.95;;;;;;;10.67;61.83;100858.28;4888594;28;97726;-86
2021/10/14 09:41:52;;;;;;;14.90;11.18;;;;;;;10.77;61.85;100862.41;4891020;28;96922;-89
2021/10/14 09:44:19;;;;;;;20.92;11.98;;;;;;;10.81;61.20;100864.88;4917181;28;97504;-81
2021/10/14 09:46:51;;;;;;;17.05;11.27;;;;;;;10.84;61.22;100870.06;4903336;28;99615;-85
2021/10/14 09:49:28;;;;;;;12.63;11.30;;;;;;;10.84;61.71;100870.06;4903844;28;97290;-80
2021/10/14 09:51:56;;;;;;;13.82;11.60;;;;;;;10.90;61.61;100866.41;4900891;28;97420;-79
2021/10/14 09:54:22;;;;;;;17.25;11.02;;;;;;;10.94;61.51;100859.28;4900149;28;98011;-79
2021/10/14 09:56:48;;;;;;;12.68;10.68;;;;;;;11.03;61.92;100864.31;4882689;28;102113;-79
2021/10/14 09:59:13;;;;;;;12.88;10.73;;;;;;;11.13;61.95;100868.41;4900932;28;97063;-78
2021/10/14 10:01:40;;;;;;;21.02;11.75;;;;;;;11.16;61.96;100856.97;4903570;28;97621;-78
2021/10/14 10:04:06;;;;;;;12.15;10.85;;;;;;;11.22;62.04;100857.63;4884842;28;101088;-78
2021/10/14 10:06:33;;;;;;;12.52;10.93;;;;;;;11.22;61.51;100849.75;4882803;28;100901;-81
2021/10/14 10:09:19;;;;;;;12.45;11.02;;;;;;;11.23;62.05;100863.78;4890863;28;97041;-78
2021/10/14 10:11:55;;;;;;;13.10;10.80;;;;;;;11.24;62.17;100847.94;4898368;28;97156;-80
2021/10/14 10:14:22;;;;;;;11.85;10.65;;;;;;;11.28;62.06;100857.47;4889002;28;101456;-78
2021/10/14 10:16:54;;;;;;;13.85;11.38;;;;;;;11.32;62.31;100858.25;4889835;28;101534;-78
2021/10/14 10:19:52;;;;;;;13.73;10.80;;;;;;;11.37;62.82;100856.34;4913258;28;98004;-78
2021/10/14 10:22:33;;;;;;;12.80;10.65;;;;;;;11.42;62.78;100853.59;4911772;28;97118;-90
2021/10/14 10:25:18;;;;;;;14.53;11.00;;;;;;;11.43;62.47;100845.66;4911672;28;100672;-85
2021/10/14 10:27:44;;;;;;;19.05;11.27;;;;;;;11.42;62.11;100843.94;4870206;28;100307;-81
2021/10/14 10:30:27;;;;;;;12.68;11.10;;;;;;;11.37;62.17;100839.72;4898702;28;97708;-82
2021/10/14 10:32:53;;;;;;;15.30;10.30;;;;;;;11.47;62.43;100822.78;4908658;28;97424;-80
2021/10/14 10:35:43;;;;;;;16.77;10.57;;;;;;;11.54;62.06;100827.78;4881492;28;101181;-80
2021/10/14 10:38:17;;;;;;;12.13;9.60;;;;;;;11.63;61.84;100826.66;4886863;28;101685;-81
2021/10/14 10:40:44;;;;;;;15.15;9.82;;;;;;;11.65;61.62;100818.72;4905721;28;96831;-81
2021/10/14 10:43:13;;;;;;;14.57;9.18;;;;;;;11.74;61.35;100813.19;4877373;28;98329;-81
2021/10/14 10:45:43;;;;;;;14.57;9.48;;;;;;;11.74;62.09;100810.53;4913054;28;98134;-81
2021/10/14 10:48:10;;;;;;;10.65;8.55;;;;;;;11.67;61.96;100803.78;4917321;28;98020;-81
2021/10/14 10:50:35;;;;;;;9.23;8.32;;;;;;;11.68;62.52;100813.38;4888132;28;97872;-81
2021/10/14 10:53:11;;;;;;;10.07;8.38;;;;;;;11.57;62.28;100808.44;4933953;28;96974;-81
2021/10/14 10:55:44;;;;;;;10.20;8.32;;;;;;;11.55;62.94;100805.88;4909143;28;100910;-81
2021/10/14 10:58:12;;;;;;;14.00;9.30;;;;;;;11.56;63.17;100790.94;4894543;28;101266;-81
2021/10/14 11:00:40;;;;;;;12.70;10.23;;;;;;;11.74;62.49;100795.63;4898875;28;97511;-80
2021/10/14 11:03:19;;;;;;;13.60;10.35;;;;;;;11.70;62.60;100788.75;4919016;28;97106;-81
2021/10/14 11:05:53;;;;;;;13.68;10.27;;;;;;;11.68;62.08;100787.94;4900925;28;101647;-84
2021/10/14 11:08:24;;;;;;;12.55;9.55;;;;;;;11.65;61.95;100793.28;4905034;28;102019;-82
2021/10/14 11:10:56;;;;;;;13.65;9.05;;;;;;;11.56;61.79;100778.66;4885354;28;97451;-83
2021/10/14 11:13:22;;;;;;;;;;;;;;;11.55;62.71;100792.72;4905765;28;96943;-82
2021/10/14 11:15:55;;;;;;;10.20;9.25;;;;;;;11.57;62.07;100788.25;4883381;28;100532;-81
2021/10/14 11:18:23;;;;;;;10.15;9.27;;;;;;;11.53;62.27;100778.75;4908421;28;98004;-83
2021/10/14 11:21:04;;;;;;;9.43;8.20;;;;;;;11.47;62.36;100783.34;4899410;28;97195;-82
2021/10/14 11:23:37;;;;;;;8.97;7.53;;;;;;;11.40;62.80;100779.16;4889785;28;98056;-82